Time;durP1;ratioP1;P1;durP2;ratioP2;P2;SDS_P1;SDS_P2;PMS_P1;PMS_P2;Temp;Humidity;BMP_temperature;BMP_pressure;BME280_temperature;BME280_humidity;BME280_pressure;Samples;Min_cycle;Max_cycle;Signal;HPM_P1;HPM_P2
2023/07/02 00:00:00;;;;;;;2.13;1.23;;;18.80;99.90;;;;;;5020587;28;20377;-77
2023/07/02 00:02:26;;;;;;;2.00;1.20;;;18.70;99.90;;;;;;5038355;28;20048;-77
2023/07/02 00:04:52;;;;;;;1.58;1.10;;;18.70;99.90;;;;;;5018484;28;20022;-77
2023/07/02 00:07:17;;;;;;;3.15;1.35;;;18.70;99.90;;;;;;5015731;28;20104;-77
2023/07/02 00:09:43;;;;;;;2.60;1.40;;;18.70;99.90;;;;;;5015634;28;20022;-77
2023/07/02 00:12:09;;;;;;;3.33;1.65;;;18.60;99.90;;;;;;5030811;28;20112;-77
2023/07/02 00:14:35;;;;;;;4.40;1.30;;;18.60;99.90;;;;;;5014892;28;20030;-75
2023/07/02 00:17:01;;;;;;;2.30;1.70;;;18.50;99.90;;;;;;5015787;28;20457;-77
2023/07/02 00:19:27;;;;;;;7.70;1.90;;;18.60;99.90;;;;;;5015173;28;20549;-77
2023/07/02 00:21:55;;;;;;;3.33;1.70;;;18.50;99.90;;;;;;5016248;28;20026;-77
2023/07/02 00:24:21;;;;;;;2.45;1.42;;;18.50;99.90;;;;;;5015304;28;20105;-75
2023/07/02 00:26:47;;;;;;;3.75;2.05;;;18.40;99.90;;;;;;5015078;28;20129;-77
2023/07/02 00:29:13;;;;;;;2.00;1.60;;;18.40;99.90;;;;;;5034940;28;20029;-76
2023/07/02 00:31:38;;;;;;;3.90;1.85;;;18.40;99.90;;;;;;5029246;28;20026;-76
2023/07/02 00:34:04;;;;;;;2.75;1.67;;;18.40;99.90;;;;;;5013421;28;20033;-76
2023/07/02 00:36:31;;;;;;;3.42;2.03;;;18.40;99.90;;;;;;5016771;28;20503;-74
2023/07/02 00:38:58;;;;;;;3.53;1.58;;;18.40;99.90;;;;;;5011747;28;20088;-72
2023/07/02 00:41:24;;;;;;;2.92;1.92;;;18.40;99.90;;;;;;5014127;28;20499;-76
2023/07/02 00:43:54;;;;;;;2.85;1.58;;;18.40;99.90;;;;;;5013272;28;20404;-75
2023/07/02 00:46:21;;;;;;;3.00;1.60;;;18.40;99.90;;;;;;5013583;28;20025;-75
2023/07/02 00:48:48;;;;;;;1.67;1.48;;;18.40;99.90;;;;;;5011523;28;20133;-75
2023/07/02 00:51:22;;;;;;;4.20;2.30;;;18.40;99.90;;;;;;5011553;28;20022;-76
2023/07/02 00:53:49;;;;;;;2.38;1.55;;;18.40;99.90;;;;;;5009001;28;20361;-76
2023/07/02 00:56:15;;;;;;;3.25;1.63;;;18.40;99.90;;;;;;5013657;28;20503;-75
2023/07/02 00:58:48;;;;;;;3.20;1.60;;;18.40;99.90;;;;;;5017627;28;20430;-75
2023/07/02 01:01:25;;;;;;;1.90;1.70;;;18.30;99.90;;;;;;5015995;28;20017;-76
2023/07/02 01:03:55;;;;;;;2.42;2.03;;;18.40;99.90;;;;;;5014227;28;20113;-76
2023/07/02 01:06:26;;;;;;;3.42;1.75;;;18.30;99.90;;;;;;5011157;28;20216;-75
2023/07/02 01:08:54;;;;;;;5.18;2.10;;;18.30;99.90;;;;;;5013634;28;20063;-75
2023/07/02 01:11:23;;;;;;;2.67;1.83;;;18.40;99.90;;;;;;5014915;28;20108;-75
2023/07/02 01:13:53;;;;;;;2.67;1.55;;;18.30;99.90;;;;;;5012709;28;20057;-76
2023/07/02 01:16:20;;;;;;;2.53;2.08;;;18.30;99.90;;;;;;5012536;28;20045;-75
2023/07/02 01:18:45;;;;;;;2.28;1.80;;;18.30;99.90;;;;;;5011762;28;20079;-74
2023/07/02 01:21:11;;;;;;;2.85;2.30;;;18.30;99.90;;;;;;5015195;28;20116;-76
2023/07/02 01:23:37;;;;;;;2.45;1.90;;;18.30;99.90;;;;;;5011309;28;20022;-76
2023/07/02 01:26:03;;;;;;;3.55;1.90;;;18.30;99.90;;;;;;5013969;28;20477;-76
2023/07/02 01:28:36;;;;;;;7.03;2.30;;;18.30;99.90;;;;;;5015579;28;20056;-76
2023/07/02 01:31:04;;;;;;;2.90;2.17;;;18.30;99.90;;;;;;5012361;28;20116;-76
2023/07/02 01:33:29;;;;;;;4.50;1.90;;;18.30;99.90;;;;;;5012577;28;20034;-76
2023/07/02 01:35:55;;;;;;;3.65;1.95;;;18.30;99.90;;;;;;5012037;28;20392;-76
2023/07/02 01:38:22;;;;;;;5.78;2.20;;;18.30;99.90;;;;;;5012798;28;20036;-76
2023/07/02 01:40:47;;;;;;;3.83;2.28;;;18.20;99.90;;;;;;5034913;28;20022;-75
2023/07/02 01:43:13;;;;;;;5.03;2.20;;;18.20;99.90;;;;;;5011321;28;20025;-76
2023/07/02 01:45:40;;;;;;;5.93;2.50;;;18.20;99.90;;;;;;5015529;28;20097;-76
2023/07/02 01:48:06;;;;;;;3.08;2.17;;;18.20;99.90;;;;;;5012552;28;20539;-77
2023/07/02 01:50:31;;;;;;;5.47;2.22;;;18.10;99.90;;;;;;5012319;28;20102;-75
2023/07/02 01:52:57;;;;;;;7.82;3.00;;;18.10;99.90;;;;;;5012107;28;20412;-76
2023/07/02 01:55:23;;;;;;;5.68;2.95;;;18.10;99.90;;;;;;5009921;28;20076;-74
2023/07/02 01:57:48;;;;;;;2.85;2.25;;;18.00;99.90;;;;;;5011932;28;20040;-76
2023/07/02 02:00:14;;;;;;;3.30;2.08;;;18.00;99.90;;;;;;5012741;28;20100;-76
2023/07/02 02:02:40;;;;;;;3.30;2.38;;;18.00;99.90;;;;;;5011363;28;20018;-75
2023/07/02 02:05:05;;;;;;;5.30;2.78;;;17.90;99.90;;;;;;5029093;28;20026;-75
2023/07/02 02:07:32;;;;;;;5.57;2.60;;;17.90;99.90;;;;;;5029082;28;20084;-76
2023/07/02 02:09:58;;;;;;;7.88;7.07;;;17.90;99.90;;;;;;5014457;28;20046;-76
2023/07/02 02:12:23;;;;;;;5.60;2.95;;;17.80;99.90;;;;;;5058622;22;20029;-86
2023/07/02 02:14:49;;;;;;;4.00;2.83;;;17.80;99.90;;;;;;5050380;28;20097;-84
2023/07/02 02:17:14;;;;;;;4.88;2.60;;;17.80;99.90;;;;;;5053528;28;20021;-86
2023/07/02 02:19:42;;;;;;;3.83;2.45;;;17.70;99.90;;;;;;5054152;28;20017;-86
2023/07/02 02:22:07;;;;;;;3.08;2.08;;;17.70;99.90;;;;;;5051378;28;20033;-84
2023/07/02 02:24:33;;;;;;;4.25;2.88;;;17.70;99.90;;;;;;5048890;28;20017;-84
2023/07/02 02:26:58;;;;;;;6.03;2.55;;;17.60;99.90;;;;;;5050099;28;20132;-84
2023/07/02 02:29:24;;;;;;;3.25;2.88;;;17.60;99.90;;;;;;5052557;28;20043;-86
2023/07/02 02:31:50;;;;;;;5.32;2.65;;;17.50;99.90;;;;;;5033318;28;20041;-84
2023/07/02 02:34:16;;;;;;;6.45;2.92;;;17.50;99.90;;;;;;5052343;28;20033;-84
2023/07/02 02:36:43;;;;;;;4.70;2.45;;;17.50;99.90;;;;;;5050562;28;20048;-85
2023/07/02 02:39:09;;;;;;;3.47;2.85;;;17.50;99.90;;;;;;5056514;28;20024;-84
2023/07/02 02:41:34;;;;;;;5.53;2.83;;;17.50;99.90;;;;;;5056986;28;20024;-86
2023/07/02 02:44:00;;;;;;;6.68;3.10;;;17.50;99.90;;;;;;5052228;28;20099;-86
2023/07/02 02:46:25;;;;;;;3.42;2.08;;;17.40;99.90;;;;;;5053245;28;20045;-86
2023/07/02 02:48:54;;;;;;;6.40;2.88;;;17.40;99.90;;;;;;5046423;28;20481;-84
2023/07/02 02:51:20;;;;;;;3.20;2.15;;;17.40;99.90;;;;;;5055305;28;20021;-84
2023/07/02 02:53:46;;;;;;;4.30;2.60;;;17.40;99.90;;;;;;5048442;28;20033;-86
2023/07/02 02:56:11;;;;;;;3.78;2.28;;;17.40;99.90;;;;;;5051580;28;20025;-86
2023/07/02 02:58:37;;;;;;;4.28;2.45;;;17.40;99.90;;;;;;5054358;28;20554;-84
2023/07/02 03:01:10;;;;;;;3.83;2.22;;;17.40;99.90;;;;;;5049493;28;20064;-84
2023/07/02 03:03:45;;;;;;;6.18;2.28;;;17.40;99.90;;;;;;5055741;28;20097;-83
2023/07/02 03:06:12;;;;;;;4.90;2.53;;;17.40;99.90;;;;;;5049567;28;20061;-84
2023/07/02 03:08:39;;;;;;;4.82;2.60;;;17.30;99.90;;;;;;5050306;28;20409;-83
2023/07/02 03:11:04;;;;;;;6.60;3.00;;;17.30;99.90;;;;;;5065717;28;20030;-83
2023/07/02 03:13:30;;;;;;;5.53;3.03;;;17.40;99.90;;;;;;5050685;28;20087;-84
2023/07/02 03:15:55;;;;;;;3.33;2.20;;;17.30;99.90;;;;;;5064884;28;20022;-86
2023/07/02 03:18:21;;;;;;;5.97;2.40;;;17.30;99.90;;;;;;5054635;28;20106;-85
2023/07/02 03:20:48;;;;;;;4.70;2.97;;;17.30;99.90;;;;;;5051388;28;20024;-83
2023/07/02 03:23:13;;;;;;;5.47;3.75;;;17.30;99.90;;;;;;5054827;28;20037;-84
2023/07/02 03:25:39;;;;;;;4.28;2.63;;;17.30;99.90;;;;;;5055022;28;20473;-85
2023/07/02 03:28:04;;;;;;;6.90;2.72;;;17.20;99.90;;;;;;5051591;28;20057;-84
2023/07/02 03:30:30;;;;;;;5.22;2.55;;;17.20;99.90;;;;;;5054560;28;20052;-84
2023/07/02 03:32:57;;;;;;;4.20;2.60;;;17.10;99.90;;;;;;5059069;28;20021;-84
2023/07/02 03:35:23;;;;;;;3.38;2.90;;;17.10;99.90;;;;;;5060316;28;20539;-84
2023/07/02 03:37:48;;;;;;;3.92;2.53;;;17.00;99.90;;;;;;5057820;28;20029;-86
2023/07/02 03:40:14;;;;;;;5.18;2.53;;;17.00;99.90;;;;;;5061780;28;20029;-85
2023/07/02 03:42:39;;;;;;;3.72;2.63;;;17.00;99.90;;;;;;5075390;28;20496;-85
2023/07/02 03:45:05;;;;;;;6.13;3.25;;;17.00;99.90;;;;;;5057716;28;20489;-85
2023/07/02 03:47:32;;;;;;;8.60;2.92;;;16.80;99.90;;;;;;5037696;28;20033;-84
2023/07/02 03:49:58;;;;;;;5.13;3.05;;;16.80;99.90;;;;;;5053916;28;20044;-86
2023/07/02 03:52:23;;;;;;;10.55;4.22;;;16.70;99.90;;;;;;5051337;28;20028;-85
2023/07/02 03:54:49;;;;;;;7.47;3.55;;;16.60;99.90;;;;;;5056557;28;20089;-87
2023/07/02 03:57:15;;;;;;;7.65;2.90;;;16.50;99.90;;;;;;5055022;28;20040;-86
2023/07/02 03:59:40;;;;;;;6.03;2.90;;;16.40;99.90;;;;;;5055314;28;20048;-87
2023/07/02 04:02:06;;;;;;;4.03;3.25;;;16.40;99.90;;;;;;5058515;28;20075;-87
2023/07/02 04:04:31;;;;;;;5.07;2.75;;;16.30;99.90;;;;;;5055361;28;20066;-87
2023/07/02 04:06:57;;;;;;;4.47;2.95;;;16.30;99.90;;;;;;5055985;28;20054;-87
2023/07/02 04:09:22;;;;;;;4.72;3.40;;;16.30;99.90;;;;;;5054784;28;20050;-87
2023/07/02 04:11:48;;;;;;;7.90;3.72;;;16.30;99.90;;;;;;5057738;28;20074;-87
2023/07/02 04:14:14;;;;;;;7.20;3.30;;;16.30;99.90;;;;;;5060013;28;20029;-87
2023/07/02 04:16:39;;;;;;;7.60;2.90;;;16.30;99.90;;;;;;5055464;28;20493;-85
2023/07/02 04:19:05;;;;;;;5.32;2.63;;;16.20;99.90;;;;;;5056045;28;20033;-85
2023/07/02 04:21:30;;;;;;;5.82;3.08;;;16.20;99.90;;;;;;5055895;28;20548;-86
2023/07/02 04:23:56;;;;;;;5.82;3.10;;;16.20;99.90;;;;;;5055878;28;20037;-86
2023/07/02 04:26:21;;;;;;;7.20;3.40;;;16.20;99.90;;;;;;5052266;28;20080;-85
2023/07/02 04:28:47;;;;;;;4.38;3.10;;;16.30;99.90;;;;;;5052518;28;20031;-87
2023/07/02 04:31:13;;;;;;;5.38;3.33;;;16.30;99.90;;;;;;5054137;28;20025;-86
2023/07/02 04:33:39;;;;;;;5.82;3.28;;;16.30;99.90;;;;;;5054018;28;20040;-85
2023/07/02 04:36:05;;;;;;;5.50;3.28;;;16.30;99.90;;;;;;5052284;28;20079;-85
2023/07/02 04:38:31;;;;;;;9.50;2.67;;;16.30;99.90;;;;;;5054859;28;20075;-86
2023/07/02 04:41:04;;;;;;;3.63;2.50;;;16.30;99.90;;;;;;5053490;28;20032;-86
2023/07/02 04:43:33;;;;;;;3.70;2.22;;;16.30;99.90;;;;;;5053613;28;20497;-86
2023/07/02 04:45:59;;;;;;;2.88;2.03;;;16.30;99.90;;;;;;5053641;28;20068;-86
2023/07/02 04:48:24;;;;;;;3.78;2.10;;;16.30;99.90;;;;;;5056723;28;20021;-86
2023/07/02 04:50:50;;;;;;;3.15;2.30;;;16.30;99.90;;;;;;5054243;28;20052;-84
2023/07/02 04:53:16;;;;;;;1.90;1.50;;;16.40;99.90;;;;;;5054447;28;20028;-86
2023/07/02 04:55:43;;;;;;;2.28;1.88;;;16.40;99.90;;;;;;5053071;28;20108;-85
2023/07/02 04:58:08;;;;;;;4.63;1.98;;;16.40;99.90;;;;;;5060192;28;20481;-86
2023/07/02 05:00:34;;;;;;;3.60;1.88;;;16.40;99.90;;;;;;5060999;28;20042;-85
2023/07/02 05:03:00;;;;;;;4.78;2.22;;;16.40;99.90;;;;;;5055234;28;20040;-85
2023/07/02 05:05:25;;;;;;;4.35;2.60;;;16.40;99.90;;;;;;5055968;28;20029;-85
2023/07/02 05:07:51;;;;;;;2.65;2.15;;;16.40;99.90;;;;;;5058800;28;20027;-84
2023/07/02 05:10:17;;;;;;;4.05;2.30;;;16.50;99.90;;;;;;5053848;28;20477;-86
2023/07/02 05:12:42;;;;;;;2.47;1.60;;;16.50;99.90;;;;;;5055694;28;20024;-85
2023/07/02 05:15:08;;;;;;;3.90;2.03;;;16.50;99.90;;;;;;5057320;28;20021;-84
2023/07/02 05:17:34;;;;;;;3.75;1.90;;;16.60;99.90;;;;;;5057143;28;20017;-85
2023/07/02 05:20:00;;;;;;;3.10;1.60;;;16.60;99.90;;;;;;5073604;28;20474;-85
2023/07/02 05:22:26;;;;;;;2.30;1.63;;;16.60;99.90;;;;;;5060955;28;20056;-84
2023/07/02 05:24:52;;;;;;;3.05;1.48;;;16.60;99.90;;;;;;5059521;28;20024;-84
2023/07/02 05:27:17;;;;;;;2.15;1.70;;;16.70;99.90;;;;;;5059676;28;20052;-84
2023/07/02 05:29:43;;;;;;;2.30;1.60;;;16.70;99.90;;;;;;5062366;28;20040;-84
2023/07/02 05:32:09;;;;;;;2.90;2.00;;;16.70;99.90;;;;;;5061360;28;20029;-85
2023/07/02 05:34:35;;;;;;;4.00;1.95;;;16.70;99.90;;;;;;5055713;28;20559;-85
2023/07/02 05:37:00;;;;;;;2.67;1.63;;;16.80;99.90;;;;;;5058776;28;20029;-85
2023/07/02 05:39:26;;;;;;;3.88;1.90;;;16.80;99.90;;;;;;5060631;28;20064;-85
2023/07/02 05:41:52;;;;;;;4.35;1.45;;;16.80;99.90;;;;;;5058160;28;20585;-84
2023/07/02 05:44:18;;;;;;;2.72;1.50;;;16.80;99.90;;;;;;5058515;28;20496;-85
2023/07/02 05:46:44;;;;;;;3.03;1.83;;;16.90;99.90;;;;;;5059512;28;20017;-84
2023/07/02 05:49:10;;;;;;;2.85;1.95;;;16.90;99.90;;;;;;5058115;28;20058;-83
2023/07/02 05:51:36;;;;;;;2.20;1.50;;;16.90;99.90;;;;;;5055138;28;20068;-84
2023/07/02 05:54:01;;;;;;;2.75;1.40;;;16.90;99.90;;;;;;5058440;28;20493;-84
2023/07/02 05:56:27;;;;;;;2.83;1.58;;;17.00;99.90;;;;;;5055424;28;20040;-84
2023/07/02 05:58:52;;;;;;;2.45;1.08;;;17.00;99.90;;;;;;5056916;28;20426;-85
2023/07/02 06:01:18;;;;;;;3.35;1.70;;;17.10;99.90;;;;;;5053025;28;20041;-83
2023/07/02 06:03:45;;;;;;;3.42;1.40;;;17.10;99.90;;;;;;5068310;28;20124;-84
2023/07/02 06:06:11;;;;;;;2.47;1.30;;;17.20;99.90;;;;;;5055224;28;20025;-84
2023/07/02 06:08:37;;;;;;;3.25;1.88;;;17.20;99.90;;;;;;5055934;28;20092;-85
2023/07/02 06:11:03;;;;;;;2.03;1.60;;;17.30;99.90;;;;;;5057938;28;20504;-84
2023/07/02 06:13:28;;;;;;;3.08;1.83;;;17.30;99.90;;;;;;5051640;28;20040;-83
2023/07/02 06:15:54;;;;;;;2.15;1.65;;;17.40;99.90;;;;;;5056822;28;20029;-84
2023/07/02 06:18:19;;;;;;;4.03;1.95;;;17.50;99.90;;;;;;5055691;28;20025;-85
2023/07/02 06:20:46;;;;;;;3.47;2.00;;;17.60;99.90;;;;;;5056570;28;20076;-83
2023/07/02 06:23:12;;;;;;;2.30;1.70;;;17.70;99.90;;;;;;5068284;28;20038;-84
2023/07/02 06:25:37;;;;;;;2.95;1.50;;;17.80;99.90;;;;;;5057376;28;20082;-85
2023/07/02 06:28:03;;;;;;;3.60;2.10;;;17.80;99.90;;;;;;5058179;28;20040;-84
2023/07/02 06:30:29;;;;;;;2.17;1.60;;;17.90;99.90;;;;;;5057439;28;20099;-84
2023/07/02 06:32:55;;;;;;;4.28;2.30;;;18.00;99.90;;;;;;5057576;28;20029;-85
2023/07/02 06:35:21;;;;;;;3.97;1.63;;;18.10;99.90;;;;;;5053288;28;20029;-84
2023/07/02 06:37:47;;;;;;;2.85;1.67;;;18.20;99.90;;;;;;5054629;28;20030;-84
2023/07/02 06:40:12;;;;;;;4.03;2.10;;;18.30;99.90;;;;;;5053703;28;20025;-82
2023/07/02 06:42:38;;;;;;;4.25;2.50;;;18.40;99.90;;;;;;5051055;28;20087;-82
2023/07/02 06:45:05;;;;;;;5.07;2.15;;;18.50;99.90;;;;;;5056746;28;20067;-83
2023/07/02 06:47:30;;;;;;;4.38;2.10;;;18.60;99.90;;;;;;5050473;28;20075;-81
2023/07/02 06:49:59;;;;;;;4.40;2.28;;;18.70;99.90;;;;;;5057825;28;20025;-83
2023/07/02 06:52:24;;;;;;;4.70;2.08;;;18.80;99.90;;;;;;5052903;28;20608;-83
2023/07/02 06:54:50;;;;;;;4.93;2.05;;;18.70;99.90;;;;;;5055406;28;20036;-83
2023/07/02 06:57:16;;;;;;;5.40;2.88;;;18.70;99.90;;;;;;5046387;28;20513;-83
2023/07/02 06:59:41;;;;;;;8.40;2.83;;;18.70;99.90;;;;;;5047447;28;20033;-82
2023/07/02 07:02:07;;;;;;;6.85;2.97;;;18.60;99.90;;;;;;5053051;28;20033;-82
2023/07/02 07:04:34;;;;;;;6.78;2.50;;;18.70;99.90;;;;;;5054012;28;20578;-84
2023/07/02 07:07:02;;;;;;;7.03;2.45;;;18.70;99.90;;;;;;5060467;28;20033;-83
2023/07/02 07:09:28;;;;;;;7.40;2.90;;;18.80;99.90;;;;;;5063131;28;20076;-84
2023/07/02 07:11:54;;;;;;;5.25;2.75;;;18.90;99.90;;;;;;5063630;28;20032;-83
2023/07/02 07:14:19;;;;;;;9.48;2.28;;;19.10;99.90;;;;;;5062147;28;20067;-82
2023/07/02 07:16:45;;;;;;;4.20;2.70;;;19.10;99.90;;;;;;5057323;28;20054;-82
2023/07/02 07:19:10;;;;;;;5.00;3.22;;;19.10;99.90;;;;;;5061211;28;20028;-83
2023/07/02 07:21:36;;;;;;;5.47;2.70;;;19.30;99.90;;;;;;5056780;28;20481;-85
2023/07/02 07:24:02;;;;;;;9.07;3.78;;;19.30;99.90;;;;;;5059863;28;20111;-84
2023/07/02 07:26:27;;;;;;;6.65;3.42;;;19.50;99.90;;;;;;5067133;28;20024;-83
2023/07/02 07:28:57;;;;;;;7.05;3.47;;;19.60;99.90;;;;;;5063814;28;20040;-83
2023/07/02 07:31:23;;;;;;;6.70;3.80;;;19.60;99.90;;;;;;5065429;28;20025;-86
2023/07/02 07:33:49;;;;;;;6.95;3.05;;;19.60;99.90;;;;;;5058597;28;20045;-84
2023/07/02 07:36:15;;;;;;;6.25;3.85;;;19.60;99.90;;;;;;5064067;28;20074;-85
2023/07/02 07:38:42;;;;;;;9.77;4.40;;;19.60;99.90;;;;;;5061170;28;20562;-84
2023/07/02 07:41:08;;;;;;;8.15;4.43;;;19.50;99.90;;;;;;5076199;28;20043;-84
2023/07/02 07:43:34;;;;;;;9.75;4.72;;;19.50;99.90;;;;;;5062077;28;20025;-84
2023/07/02 07:46:00;;;;;;;11.05;4.65;;;19.50;99.90;;;;;;5065681;28;20098;-83
2023/07/02 07:48:25;;;;;;;8.10;4.20;;;19.50;99.90;;;;;;5066906;28;20484;-86
2023/07/02 07:50:51;;;;;;;9.52;4.78;;;19.50;99.90;;;;;;5056636;28;20040;-84
2023/07/02 07:53:17;;;;;;;10.25;4.43;;;19.40;99.90;;;;;;5062315;28;20037;-84
2023/07/02 07:55:43;;;;;;;9.75;4.95;;;19.30;99.90;;;;;;5063794;28;20048;-83
2023/07/02 07:58:09;;;;;;;8.63;4.63;;;19.40;99.90;;;;;;5057987;28;20505;-82
2023/07/02 08:00:35;;;;;;;11.50;5.50;;;19.40;99.90;;;;;;5040727;28;20040;-82
2023/07/02 08:03:03;;;;;;;12.93;5.70;;;19.40;99.90;;;;;;5062166;28;20030;-84
2023/07/02 08:05:29;;;;;;;11.43;5.65;;;19.50;99.90;;;;;;5066204;28;20028;-85
2023/07/02 08:07:55;;;;;;;13.82;5.93;;;19.50;99.90;;;;;;5062844;28;20497;-84
2023/07/02 08:10:21;;;;;;;13.07;5.55;;;19.50;99.90;;;;;;5059647;28;20029;-84
2023/07/02 08:12:47;;;;;;;11.95;6.80;;;19.60;99.90;;;;;;5061094;28;20075;-86
2023/07/02 08:15:13;;;;;;;14.88;5.20;;;19.60;99.90;;;;;;5058475;28;20021;-83
2023/07/02 08:17:38;;;;;;;13.10;6.05;;;19.70;99.90;;;;;;5061462;28;20063;-84
2023/07/02 08:20:04;;;;;;;12.18;5.90;;;19.80;99.90;;;;;;5064518;28;20046;-84
2023/07/02 08:22:30;;;;;;;10.63;6.03;;;19.90;99.90;;;;;;5063622;28;20021;-84
2023/07/02 08:24:56;;;;;;;11.52;5.82;;;20.00;99.90;;;;;;5061846;28;20029;-85
2023/07/02 08:27:23;;;;;;;10.65;5.70;;;20.10;99.90;;;;;;5065198;28;20537;-85
2023/07/02 08:29:48;;;;;;;10.15;6.07;;;20.20;99.90;;;;;;5065284;28;20025;-86
2023/07/02 08:32:15;;;;;;;11.23;6.18;;;20.40;99.90;;;;;;5069364;28;20040;-85
2023/07/02 08:34:41;;;;;;;14.25;6.65;;;20.60;99.90;;;;;;5069609;28;20025;-87
2023/07/02 08:37:07;;;;;;;13.95;6.85;;;20.50;99.90;;;;;;5068016;28;20029;-83
2023/07/02 08:39:33;;;;;;;16.27;7.70;;;20.50;99.90;;;;;;5065678;28;20029;-84
2023/07/02 08:41:59;;;;;;;14.57;7.78;;;20.50;99.90;;;;;;5069347;28;20044;-85
2023/07/02 08:44:26;;;;;;;13.77;7.40;;;20.50;99.90;;;;;;5061611;28;20025;-86
2023/07/02 08:46:56;;;;;;;15.18;7.75;;;20.50;99.90;;;;;;5058606;28;20032;-85
2023/07/02 08:49:22;;;;;;;17.33;7.85;;;20.50;99.90;;;;;;5059068;28;20036;-86
2023/07/02 08:51:48;;;;;;;14.77;7.30;;;20.70;99.90;;;;;;5060731;28;20017;-85
2023/07/02 08:54:14;;;;;;;16.23;8.38;;;20.80;99.90;;;;;;5057728;28;20053;-85
2023/07/02 08:56:40;;;;;;;13.25;7.32;;;20.90;99.90;;;;;;5059785;28;20031;-85
2023/07/02 08:59:07;;;;;;;15.27;8.38;;;21.00;99.90;;;;;;5058370;28;20044;-86
2023/07/02 09:01:44;;;;;;;13.32;7.63;;;21.10;99.90;;;;;;5057492;28;20044;-86
2023/07/02 09:04:15;;;;;;;16.85;7.68;;;21.20;99.90;;;;;;5056244;28;20131;-85
2023/07/02 09:06:41;;;;;;;12.82;7.65;;;21.30;99.90;;;;;;5064437;28;20032;-84
2023/07/02 09:09:07;;;;;;;17.17;7.75;;;21.30;99.90;;;;;;5054038;28;20041;-86
2023/07/02 09:11:33;;;;;;;16.77;8.32;;;21.40;99.90;;;;;;5059027;28;20090;-86
2023/07/02 09:14:00;;;;;;;17.52;8.93;;;21.30;99.90;;;;;;5059652;28;20036;-86
2023/07/02 09:16:36;;;;;;;18.40;8.65;;;21.40;99.90;;;;;;5054721;28;20021;-86
2023/07/02 09:19:09;;;;;;;15.88;8.80;;;21.40;99.90;;;;;;5056306;28;20040;-86
2023/07/02 09:21:45;;;;;;;15.40;9.00;;;21.40;99.40;;;;;;5057617;28;20033;-84
2023/07/02 09:24:22;;;;;;;18.02;8.70;;;21.40;99.40;;;;;;5056098;28;20104;-86
2023/07/02 09:26:57;;;;;;;16.60;8.40;;;21.40;99.30;;;;;;5073021;28;20029;-85
2023/07/02 09:29:33;;;;;;;22.27;8.50;;;21.40;98.40;;;;;;5058633;28;20028;-86
2023/07/02 09:32:01;;;;;;;16.83;7.78;;;21.50;98.50;;;;;;5058818;28;20036;-86
2023/07/02 09:34:31;;;;;;;19.33;8.18;;;21.60;97.90;;;;;;5057892;28;20033;-84
2023/07/02 09:37:01;;;;;;;13.80;8.20;;;21.70;98.10;;;;;;5052594;28;20033;-86
2023/07/02 09:39:30;;;;;;;17.65;8.50;;;21.80;97.70;;;;;;5055425;28;20106;-85
2023/07/02 09:41:57;;;;;;;17.48;8.57;;;21.80;97.30;;;;;;5054749;28;20035;-86
2023/07/02 09:44:34;;;;;;;15.75;8.73;;;21.80;96.80;;;;;;5056722;28;20056;-86
2023/07/02 09:47:08;;;;;;;15.85;7.20;;;22.00;96.90;;;;;;5059552;28;20051;-86
2023/07/02 09:49:35;;;;;;;;;;;22.10;96.50;;;;;;5074244;28;20476;-86
2023/07/02 09:52:02;;;;;;;15.95;8.25;;;22.20;96.30;;;;;;5060674;28;19909;-87
2023/07/02 09:54:29;;;;;;;17.48;8.70;;;22.30;95.90;;;;;;5059593;28;20021;-87
2023/07/02 09:56:56;;;;;;;13.80;9.10;;;22.20;95.80;;;;;;5060024;28;20036;-87
2023/07/02 09:59:22;;;;;;;14.00;8.95;;;22.20;94.70;;;;;;5060016;28;20087;-84
2023/07/02 10:01:47;;;;;;;16.35;8.75;;;22.20;94.70;;;;;;5092181;22;20053;-72
2023/07/02 10:04:19;;;;;;;13.77;8.32;;;22.30;94.40;;;;;;5028587;28;20040;-72
2023/07/02 10:06:50;;;;;;;18.58;9.38;;;22.40;93.70;;;;;;5029755;28;20420;-72
2023/07/02 10:09:19;;;;;;;14.15;8.25;;;22.30;93.40;;;;;;5030881;28;20022;-72
2023/07/02 10:11:45;;;;;;;15.57;9.48;;;22.40;93.50;;;;;;5031402;28;20554;-72
2023/07/02 10:14:11;;;;;;;18.42;10.27;;;22.40;93.00;;;;;;5031513;28;20060;-72
2023/07/02 10:16:50;;;;;;;19.27;11.48;;;22.50;92.10;;;;;;5033388;28;20420;-72
2023/07/02 10:19:16;;;;;;;17.65;11.02;;;22.40;91.50;;;;;;5032026;28;20384;-73
2023/07/02 10:21:41;;;;;;;19.67;10.77;;;22.50;91.20;;;;;;5045578;28;20021;-74
2023/07/02 10:24:12;;;;;;;18.30;10.45;;;22.50;91.00;;;;;;5030297;28;20029;-74
2023/07/02 10:26:38;;;;;;;20.77;11.43;;;22.50;91.30;;;;;;5031771;28;20021;-74
2023/07/02 10:29:03;;;;;;;23.20;13.13;;;22.60;91.10;;;;;;5047301;28;20069;-75
2023/07/02 10:31:29;;;;;;;20.73;12.55;;;22.70;90.70;;;;;;5031160;28;20017;-73
2023/07/02 10:33:55;;;;;;;19.73;11.80;;;22.80;90.70;;;;;;5030108;28;20041;-74
2023/07/02 10:36:23;;;;;;;21.77;12.57;;;22.80;90.50;;;;;;5029865;28;20106;-74
2023/07/02 10:38:49;;;;;;;21.45;13.10;;;22.80;89.80;;;;;;5033169;28;20022;-74
2023/07/02 10:41:26;;;;;;;24.58;11.65;;;22.70;90.30;;;;;;5029546;28;20033;-74
2023/07/02 10:43:52;;;;;;;21.73;12.63;;;22.70;89.00;;;;;;5046403;28;20033;-73
2023/07/02 10:46:21;;;;;;;19.90;11.55;;;22.60;89.50;;;;;;5033194;28;20028;-74
2023/07/02 10:48:57;;;;;;;20.52;11.98;;;22.50;90.10;;;;;;5031389;28;20021;-73
2023/07/02 10:51:28;;;;;;;22.50;12.02;;;22.50;90.00;;;;;;5017451;28;20029;-74
2023/07/02 10:54:02;;;;;;;21.48;11.88;;;22.60;90.00;;;;;;5029575;28;20048;-73
2023/07/02 10:56:28;;;;;;;18.38;12.07;;;22.70;89.80;;;;;;5031187;28;20029;-74
2023/07/02 10:58:54;;;;;;;23.60;12.65;;;22.80;89.30;;;;;;5029356;28;20029;-73
2023/07/02 11:01:24;;;;;;;22.33;12.52;;;22.90;89.90;;;;;;5028079;28;20037;-74
2023/07/02 11:04:04;;;;;;;22.33;12.13;;;22.90;89.40;;;;;;5037059;28;20028;-74
2023/07/02 11:06:32;;;;;;;24.05;12.82;;;23.00;89.10;;;;;;5034445;28;20361;-76
2023/07/02 11:08:58;;;;;;;19.17;12.45;;;23.00;88.80;;;;;;5031310;28;20021;-75
2023/07/02 11:11:24;;;;;;;22.58;13.50;;;23.10;89.40;;;;;;5048831;28;20538;-74
2023/07/02 11:13:51;;;;;;;25.40;13.95;;;23.30;89.30;;;;;;5030830;28;20105;-75
2023/07/02 11:16:25;;;;;;;25.70;15.98;;;23.40;88.70;;;;;;5045459;28;20072;-74
2023/07/02 11:19:07;;;;;;;25.33;14.85;;;23.50;87.10;;;;;;5019448;28;20033;-73
2023/07/02 11:21:33;;;;;;;23.95;14.05;;;23.60;87.20;;;;;;5031240;28;20018;-73
2023/07/02 11:24:07;;;;;;;24.90;14.95;;;23.60;87.50;;;;;;5031011;28;20101;-74
2023/07/02 11:26:41;;;;;;;24.15;14.60;;;23.70;85.80;;;;;;5031559;28;20030;-74
2023/07/02 11:29:18;;;;;;;27.60;15.52;;;23.60;85.70;;;;;;5034583;28;20022;-75
2023/07/02 11:31:44;;;;;;;26.08;14.13;;;23.60;85.70;;;;;;5031273;28;20091;-76
2023/07/02 11:34:14;;;;;;;27.17;14.98;;;23.50;85.30;;;;;;5030626;28;20108;-75
2023/07/02 11:36:40;;;;;;;25.23;14.65;;;23.60;84.10;;;;;;5030797;28;20037;-73
2023/07/02 11:39:06;;;;;;;22.30;13.68;;;23.50;84.20;;;;;;5030889;28;20029;-74
2023/07/02 11:41:38;;;;;;;26.40;14.88;;;23.50;81.30;;;;;;5030894;28;20402;-72
2023/07/02 11:44:04;;;;;;;24.02;13.88;;;23.40;81.80;;;;;;5030423;28;20048;-73
2023/07/02 11:46:30;;;;;;;25.35;15.50;;;23.40;82.90;;;;;;5028165;28;20487;-73
2023/07/02 11:48:55;;;;;;;25.23;15.60;;;23.40;83.40;;;;;;5030928;28;20101;-73
2023/07/02 11:51:21;;;;;;;21.92;12.98;;;23.40;84.00;;;;;;5030881;28;20550;-73
2023/07/02 11:53:47;;;;;;;20.40;12.50;;;23.50;80.90;;;;;;5034254;28;20034;-72
2023/07/02 11:56:13;;;;;;;22.45;13.75;;;23.40;77.70;;;;;;5034558;28;20029;-75
2023/07/02 11:58:39;;;;;;;21.10;13.38;;;23.40;77.50;;;;;;5034301;28;20029;-73
2023/07/02 12:01:05;;;;;;;23.90;12.88;;;23.50;77.50;;;;;;5032677;28;20031;-73
2023/07/02 12:03:30;;;;;;;18.95;11.75;;;23.50;76.80;;;;;;5049541;28;20121;-74
2023/07/02 12:05:56;;;;;;;22.10;12.95;;;23.60;76.10;;;;;;5034624;28;20030;-75
2023/07/02 12:08:22;;;;;;;24.52;12.30;;;23.60;74.30;;;;;;5032867;28;20028;-74
2023/07/02 12:10:48;;;;;;;21.60;12.32;;;23.60;74.70;;;;;;5034491;28;20100;-75
2023/07/02 12:13:13;;;;;;;24.45;13.77;;;23.60;74.50;;;;;;5034176;28;20065;-74
2023/07/02 12:15:39;;;;;;;23.73;13.45;;;23.70;76.00;;;;;;5034093;28;20036;-73
2023/07/02 12:18:05;;;;;;;23.20;13.30;;;23.80;76.10;;;;;;5034037;28;20021;-74
2023/07/02 12:20:30;;;;;;;24.85;14.45;;;23.90;76.10;;;;;;5033647;28;20036;-74
2023/07/02 12:22:56;;;;;;;22.08;14.38;;;23.90;76.10;;;;;;5034121;28;20500;-74
2023/07/02 12:25:22;;;;;;;21.80;14.60;;;24.10;75.80;;;;;;5034124;28;20427;-75
2023/07/02 12:27:48;;;;;;;24.25;13.93;;;24.10;76.00;;;;;;5034241;28;20029;-75
2023/07/02 12:30:17;;;;;;;19.70;12.15;;;24.10;75.20;;;;;;5032785;28;20396;-75
2023/07/02 12:32:43;;;;;;;21.02;12.77;;;24.20;74.10;;;;;;5032509;28;20104;-75
2023/07/02 12:35:09;;;;;;;19.17;11.75;;;24.20;74.20;;;;;;5033780;28;20046;-73
2023/07/02 12:37:35;;;;;;;20.73;12.80;;;24.10;72.40;;;;;;5034564;28;20021;-74